sensor_id;sensor_type;location;lat;lon;timestamp;temperature;humidity
37528;DHT22;23372;52.050;4.810;2023-02-11T00:00:40;7.20;99.90
37528;DHT22;23372;52.050;4.810;2023-02-11T00:03:06;7.20;99.90
37528;DHT22;23372;52.050;4.810;2023-02-11T00:05:32;7.20;99.90
37528;DHT22;23372;52.050;4.810;2023-02-11T00:07:58;7.20;99.90
37528;DHT22;23372;52.050;4.810;2023-02-11T00:10:23;7.20;99.90
37528;DHT22;23372;52.050;4.810;2023-02-11T00:12:49;7.20;99.90
37528;DHT22;23372;52.050;4.810;2023-02-11T00:15:15;7.20;99.90
37528;DHT22;23372;52.050;4.810;2023-02-11T00:17:40;7.20;99.90
37528;DHT22;23372;52.050;4.810;2023-02-11T00:20:06;7.20;99.90
37528;DHT22;23372;52.050;4.810;2023-02-11T00:22:31;7.20;99.90
37528;DHT22;23372;52.050;4.810;2023-02-11T00:24:57;7.20;99.90
37528;DHT22;23372;52.050;4.810;2023-02-11T00:27:23;7.20;99.90
37528;DHT22;23372;52.050;4.810;2023-02-11T00:29:48;7.20;99.90
37528;DHT22;23372;52.050;4.810;2023-02-11T00:32:14;7.20;99.90
37528;DHT22;23372;52.050;4.810;2023-02-11T00:34:39;7.20;99.90
37528;DHT22;23372;52.050;4.810;2023-02-11T00:37:05;7.20;99.90
37528;DHT22;23372;52.050;4.810;2023-02-11T00:39:31;7.20;99.90
37528;DHT22;23372;52.050;4.810;2023-02-11T00:41:57;7.20;99.90
37528;DHT22;23372;52.050;4.810;2023-02-11T00:44:23;7.20;99.90
37528;DHT22;23372;52.050;4.810;2023-02-11T00:46:48;7.20;99.90
37528;DHT22;23372;52.050;4.810;2023-02-11T00:49:14;7.20;99.90
37528;DHT22;23372;52.050;4.810;2023-02-11T00:51:39;7.20;99.90
37528;DHT22;23372;52.050;4.810;2023-02-11T00:54:05;7.20;99.90
37528;DHT22;23372;52.050;4.810;2023-02-11T00:56:31;7.20;99.90
37528;DHT22;23372;52.050;4.810;2023-02-11T00:58:57;7.20;99.90
37528;DHT22;23372;52.050;4.810;2023-02-11T01:01:23;7.20;99.90
37528;DHT22;23372;52.050;4.810;2023-02-11T01:03:48;7.20;99.90
37528;DHT22;23372;52.050;4.810;2023-02-11T01:06:14;7.20;99.90
37528;DHT22;23372;52.050;4.810;2023-02-11T01:08:40;7.30;99.90
37528;DHT22;23372;52.050;4.810;2023-02-11T01:11:11;7.30;99.90
37528;DHT22;23372;52.050;4.810;2023-02-11T01:13:37;7.30;99.90
37528;DHT22;23372;52.050;4.810;2023-02-11T01:16:05;7.20;99.90
37528;DHT22;23372;52.050;4.810;2023-02-11T01:18:32;7.20;99.90
37528;DHT22;23372;52.050;4.810;2023-02-11T01:20:57;7.20;99.90
37528;DHT22;23372;52.050;4.810;2023-02-11T01:23:23;7.20;99.90
37528;DHT22;23372;52.050;4.810;2023-02-11T01:25:49;7.20;99.90
37528;DHT22;23372;52.050;4.810;2023-02-11T01:28:20;7.20;99.90
37528;DHT22;23372;52.050;4.810;2023-02-11T01:30:46;7.20;99.90
37528;DHT22;23372;52.050;4.810;2023-02-11T01:33:11;7.10;99.90
37528;DHT22;23372;52.050;4.810;2023-02-11T01:35:38;7.10;99.90
37528;DHT22;23372;52.050;4.810;2023-02-11T01:38:05;7.10;99.90
37528;DHT22;23372;52.050;4.810;2023-02-11T01:40:31;7.10;99.90
37528;DHT22;23372;52.050;4.810;2023-02-11T01:42:56;7.10;99.90
37528;DHT22;23372;52.050;4.810;2023-02-11T01:45:48;7.00;99.90
37528;DHT22;23372;52.050;4.810;2023-02-11T01:48:21;7.00;99.90
37528;DHT22;23372;52.050;4.810;2023-02-11T01:50:51;7.00;99.90
37528;DHT22;23372;52.050;4.810;2023-02-11T01:53:18;6.90;99.90
37528;DHT22;23372;52.050;4.810;2023-02-11T01:56:05;6.90;99.90
37528;DHT22;23372;52.050;4.810;2023-02-11T01:58:51;7.00;99.90
37528;DHT22;23372;52.050;4.810;2023-02-11T02:01:21;6.90;99.90
37528;DHT22;23372;52.050;4.810;2023-02-11T02:03:48;6.80;99.90
37528;DHT22;23372;52.050;4.810;2023-02-11T02:06:32;6.80;99.90
37528;DHT22;23372;52.050;4.810;2023-02-11T02:09:08;6.80;99.90
37528;DHT22;23372;52.050;4.810;2023-02-11T02:11:37;6.80;99.90
37528;DHT22;23372;52.050;4.810;2023-02-11T02:14:03;6.70;99.90
37528;DHT22;23372;52.050;4.810;2023-02-11T02:16:32;6.70;99.90
37528;DHT22;23372;52.050;4.810;2023-02-11T02:30:47;6.50;99.90
37528;DHT22;23372;52.050;4.810;2023-02-11T02:33:23;6.40;99.90
37528;DHT22;23372;52.050;4.810;2023-02-11T02:38:32;6.30;99.90
37528;DHT22;23372;52.050;4.810;2023-02-11T02:41:07;6.20;99.90
37528;DHT22;23372;52.050;4.810;2023-02-11T02:43:33;6.20;99.90
37528;DHT22;23372;52.050;4.810;2023-02-11T02:48:36;6.10;99.90
37528;DHT22;23372;52.050;4.810;2023-02-11T02:51:20;6.10;99.90
37528;DHT22;23372;52.050;4.810;2023-02-11T03:01:41;6.10;99.90
37528;DHT22;23372;52.050;4.810;2023-02-11T03:04:22;6.00;99.90
37528;DHT22;23372;52.050;4.810;2023-02-11T03:07:11;5.90;99.90
37528;DHT22;23372;52.050;4.810;2023-02-11T03:09:57;5.60;99.90
37528;DHT22;23372;52.050;4.810;2023-02-11T03:12:27;5.40;99.90
37528;DHT22;23372;52.050;4.810;2023-02-11T03:14:54;5.20;99.90
37528;DHT22;23372;52.050;4.810;2023-02-11T03:17:20;5.10;99.90
37528;DHT22;23372;52.050;4.810;2023-02-11T03:19:49;5.10;99.90
37528;DHT22;23372;52.050;4.810;2023-02-11T03:22:30;5.10;99.90
37528;DHT22;23372;52.050;4.810;2023-02-11T03:24:57;5.10;99.90
37528;DHT22;23372;52.050;4.810;2023-02-11T03:30:30;5.00;99.90
37528;DHT22;23372;52.050;4.810;2023-02-11T03:33:00;5.00;99.90
37528;DHT22;23372;52.050;4.810;2023-02-11T03:35:34;5.00;99.90
37528;DHT22;23372;52.050;4.810;2023-02-11T03:38:06;4.80;99.90
37528;DHT22;23372;52.050;4.810;2023-02-11T03:40:36;4.80;99.90
37528;DHT22;23372;52.050;4.810;2023-02-11T03:43:09;4.70;99.90
37528;DHT22;23372;52.050;4.810;2023-02-11T03:45:37;4.70;99.90
37528;DHT22;23372;52.050;4.810;2023-02-11T03:48:06;4.70;99.90
37528;DHT22;23372;52.050;4.810;2023-02-11T03:50:35;4.80;99.90
37528;DHT22;23372;52.050;4.810;2023-02-11T03:53:02;4.80;99.90
37528;DHT22;23372;52.050;4.810;2023-02-11T03:55:29;4.80;99.90
37528;DHT22;23372;52.050;4.810;2023-02-11T03:57:57;4.80;99.90
37528;DHT22;23372;52.050;4.810;2023-02-11T04:00:30;4.80;99.90
37528;DHT22;23372;52.050;4.810;2023-02-11T04:02:56;4.80;99.90
37528;DHT22;23372;52.050;4.810;2023-02-11T04:05:22;4.80;99.90
37528;DHT22;23372;52.050;4.810;2023-02-11T04:07:47;4.80;99.90
37528;DHT22;23372;52.050;4.810;2023-02-11T04:10:13;4.80;99.90
37528;DHT22;23372;52.050;4.810;2023-02-11T04:12:38;4.80;99.90
37528;DHT22;23372;52.050;4.810;2023-02-11T04:15:04;4.90;99.90
37528;DHT22;23372;52.050;4.810;2023-02-11T04:17:30;4.80;99.90
37528;DHT22;23372;52.050;4.810;2023-02-11T04:19:56;4.90;99.90
37528;DHT22;23372;52.050;4.810;2023-02-11T04:22:21;4.90;99.90
37528;DHT22;23372;52.050;4.810;2023-02-11T04:24:47;4.90;99.90
37528;DHT22;23372;52.050;4.810;2023-02-11T04:27:12;4.90;99.90
37528;DHT22;23372;52.050;4.810;2023-02-11T04:29:38;4.90;99.90
37528;DHT22;23372;52.050;4.810;2023-02-11T04:32:03;4.90;99.90
37528;DHT22;23372;52.050;4.810;2023-02-11T04:34:29;4.90;99.90
37528;DHT22;23372;52.050;4.810;2023-02-11T04:36:54;4.80;99.90
37528;DHT22;23372;52.050;4.810;2023-02-11T04:39:20;4.90;99.90
37528;DHT22;23372;52.050;4.810;2023-02-11T04:41:46;4.90;99.90
37528;DHT22;23372;52.050;4.810;2023-02-11T04:44:11;4.90;99.90
37528;DHT22;23372;52.050;4.810;2023-02-11T04:46:37;4.90;99.90
37528;DHT22;23372;52.050;4.810;2023-02-11T04:49:02;4.90;99.90
37528;DHT22;23372;52.050;4.810;2023-02-11T04:51:28;4.90;99.90
37528;DHT22;23372;52.050;4.810;2023-02-11T04:53:54;4.90;99.90
37528;DHT22;23372;52.050;4.810;2023-02-11T04:56:19;4.90;99.90
37528;DHT22;23372;52.050;4.810;2023-02-11T04:58:45;5.00;99.90
37528;DHT22;23372;52.050;4.810;2023-02-11T05:01:12;5.00;99.90
37528;DHT22;23372;52.050;4.810;2023-02-11T05:03:38;4.90;99.90
37528;DHT22;23372;52.050;4.810;2023-02-11T05:06:05;4.80;99.90
37528;DHT22;23372;52.050;4.810;2023-02-11T05:08:30;4.80;99.90
37528;DHT22;23372;52.050;4.810;2023-02-11T05:10:56;4.90;99.90
37528;DHT22;23372;52.050;4.810;2023-02-11T05:13:22;4.80;99.90
37528;DHT22;23372;52.050;4.810;2023-02-11T05:15:47;4.80;99.90
37528;DHT22;23372;52.050;4.810;2023-02-11T05:18:13;4.80;99.90
37528;DHT22;23372;52.050;4.810;2023-02-11T05:20:41;4.80;99.90
37528;DHT22;23372;52.050;4.810;2023-02-11T05:23:07;4.80;99.90
37528;DHT22;23372;52.050;4.810;2023-02-11T05:25:33;4.90;99.90
37528;DHT22;23372;52.050;4.810;2023-02-11T05:27:58;4.80;99.90
37528;DHT22;23372;52.050;4.810;2023-02-11T05:30:24;4.80;99.90
37528;DHT22;23372;52.050;4.810;2023-02-11T05:32:49;4.80;99.90
37528;DHT22;23372;52.050;4.810;2023-02-11T05:35:15;4.90;99.90
37528;DHT22;23372;52.050;4.810;2023-02-11T05:37:40;4.90;99.90
37528;DHT22;23372;52.050;4.810;2023-02-11T05:40:06;4.90;99.90
37528;DHT22;23372;52.050;4.810;2023-02-11T05:42:32;4.90;99.90
37528;DHT22;23372;52.050;4.810;2023-02-11T05:44:57;5.00;99.90
37528;DHT22;23372;52.050;4.810;2023-02-11T05:47:23;5.10;99.90
37528;DHT22;23372;52.050;4.810;2023-02-11T05:49:48;5.20;99.90
37528;DHT22;23372;52.050;4.810;2023-02-11T05:52:14;5.30;99.90
37528;DHT22;23372;52.050;4.810;2023-02-11T05:54:40;5.30;99.90
37528;DHT22;23372;52.050;4.810;2023-02-11T05:57:05;5.40;99.90
37528;DHT22;23372;52.050;4.810;2023-02-11T05:59:31;5.50;99.90
37528;DHT22;23372;52.050;4.810;2023-02-11T06:01:56;5.50;99.90
37528;DHT22;23372;52.050;4.810;2023-02-11T06:04:22;5.60;99.90
37528;DHT22;23372;52.050;4.810;2023-02-11T06:06:47;5.60;99.90
37528;DHT22;23372;52.050;4.810;2023-02-11T06:09:13;5.60;99.90
37528;DHT22;23372;52.050;4.810;2023-02-11T06:11:38;5.60;99.90
37528;DHT22;23372;52.050;4.810;2023-02-11T06:14:05;5.60;99.90
37528;DHT22;23372;52.050;4.810;2023-02-11T06:16:30;5.50;99.90
37528;DHT22;23372;52.050;4.810;2023-02-11T06:18:56;5.30;99.90
37528;DHT22;23372;52.050;4.810;2023-02-11T06:21:22;5.30;99.90
37528;DHT22;23372;52.050;4.810;2023-02-11T06:23:47;5.30;99.90
37528;DHT22;23372;52.050;4.810;2023-02-11T06:26:20;5.30;99.90
37528;DHT22;23372;52.050;4.810;2023-02-11T06:28:46;5.50;99.90
37528;DHT22;23372;52.050;4.810;2023-02-11T06:31:12;5.60;99.90
37528;DHT22;23372;52.050;4.810;2023-02-11T06:33:38;5.60;99.90
37528;DHT22;23372;52.050;4.810;2023-02-11T06:36:14;5.60;99.90
37528;DHT22;23372;52.050;4.810;2023-02-11T06:38:40;5.60;99.90
37528;DHT22;23372;52.050;4.810;2023-02-11T06:41:11;5.60;99.90
37528;DHT22;23372;52.050;4.810;2023-02-11T06:43:37;5.50;99.90
37528;DHT22;23372;52.050;4.810;2023-02-11T06:46:03;5.40;99.90
37528;DHT22;23372;52.050;4.810;2023-02-11T06:48:29;5.50;99.90
37528;DHT22;23372;52.050;4.810;2023-02-11T06:50:54;5.60;99.90
37528;DHT22;23372;52.050;4.810;2023-02-11T06:53:20;5.60;99.90
37528;DHT22;23372;52.050;4.810;2023-02-11T06:55:45;5.70;99.90
37528;DHT22;23372;52.050;4.810;2023-02-11T06:58:11;5.70;99.90
37528;DHT22;23372;52.050;4.810;2023-02-11T07:00:37;5.60;99.90
37528;DHT22;23372;52.050;4.810;2023-02-11T07:03:02;5.60;99.90
37528;DHT22;23372;52.050;4.810;2023-02-11T07:05:28;5.70;99.90
37528;DHT22;23372;52.050;4.810;2023-02-11T07:07:54;5.70;99.90
37528;DHT22;23372;52.050;4.810;2023-02-11T07:10:19;5.60;99.90
37528;DHT22;23372;52.050;4.810;2023-02-11T07:12:45;5.70;99.90
37528;DHT22;23372;52.050;4.810;2023-02-11T07:15:10;5.80;99.90
37528;DHT22;23372;52.050;4.810;2023-02-11T07:17:36;5.70;99.90
37528;DHT22;23372;52.050;4.810;2023-02-11T07:20:02;5.80;99.90
37528;DHT22;23372;52.050;4.810;2023-02-11T07:22:27;5.80;99.90
37528;DHT22;23372;52.050;4.810;2023-02-11T07:24:53;5.90;99.90
37528;DHT22;23372;52.050;4.810;2023-02-11T07:27:18;5.90;99.90
37528;DHT22;23372;52.050;4.810;2023-02-11T07:29:44;5.90;99.90
37528;DHT22;23372;52.050;4.810;2023-02-11T07:32:12;5.90;99.90
37528;DHT22;23372;52.050;4.810;2023-02-11T07:34:37;6.00;99.90
37528;DHT22;23372;52.050;4.810;2023-02-11T07:37:03;6.00;99.90
37528;DHT22;23372;52.050;4.810;2023-02-11T07:39:28;6.10;99.90
37528;DHT22;23372;52.050;4.810;2023-02-11T07:41:55;6.10;99.90
37528;DHT22;23372;52.050;4.810;2023-02-11T07:44:21;6.20;99.90
37528;DHT22;23372;52.050;4.810;2023-02-11T07:46:47;6.20;99.90
37528;DHT22;23372;52.050;4.810;2023-02-11T07:49:14;6.30;99.90
37528;DHT22;23372;52.050;4.810;2023-02-11T07:51:39;6.30;99.90
37528;DHT22;23372;52.050;4.810;2023-02-11T07:54:05;6.40;99.90
37528;DHT22;23372;52.050;4.810;2023-02-11T07:56:31;6.40;99.90
37528;DHT22;23372;52.050;4.810;2023-02-11T07:59:01;6.40;99.90
37528;DHT22;23372;52.050;4.810;2023-02-11T08:01:28;6.40;99.90
37528;DHT22;23372;52.050;4.810;2023-02-11T08:03:55;6.50;99.90
37528;DHT22;23372;52.050;4.810;2023-02-11T08:06:23;6.60;99.90
37528;DHT22;23372;52.050;4.810;2023-02-11T08:08:49;6.60;99.90
37528;DHT22;23372;52.050;4.810;2023-02-11T08:11:23;6.60;99.90
37528;DHT22;23372;52.050;4.810;2023-02-11T08:13:50;6.60;99.90
37528;DHT22;23372;52.050;4.810;2023-02-11T08:16:28;6.60;99.90
37528;DHT22;23372;52.050;4.810;2023-02-11T08:18:55;6.60;99.90
37528;DHT22;23372;52.050;4.810;2023-02-11T08:21:22;6.70;99.90
37528;DHT22;23372;52.050;4.810;2023-02-11T08:23:48;6.70;99.90
37528;DHT22;23372;52.050;4.810;2023-02-11T08:26:19;6.70;99.90
37528;DHT22;23372;52.050;4.810;2023-02-11T08:28:47;6.70;99.90
37528;DHT22;23372;52.050;4.810;2023-02-11T08:31:25;6.80;99.90
37528;DHT22;23372;52.050;4.810;2023-02-11T08:33:51;6.80;99.90
37528;DHT22;23372;52.050;4.810;2023-02-11T08:36:23;6.80;99.90
37528;DHT22;23372;52.050;4.810;2023-02-11T08:38:49;6.80;99.90
37528;DHT22;23372;52.050;4.810;2023-02-11T08:41:16;6.80;99.90
37528;DHT22;23372;52.050;4.810;2023-02-11T08:43:43;6.80;99.90
37528;DHT22;23372;52.050;4.810;2023-02-11T08:46:12;6.80;99.90
37528;DHT22;23372;52.050;4.810;2023-02-11T08:48:38;6.80;99.90
37528;DHT22;23372;52.050;4.810;2023-02-11T08:51:08;6.90;99.90
37528;DHT22;23372;52.050;4.810;2023-02-11T08:53:34;6.90;99.90
37528;DHT22;23372;52.050;4.810;2023-02-11T08:56:00;6.90;99.90
37528;DHT22;23372;52.050;4.810;2023-02-11T08:58:25;6.90;99.90
37528;DHT22;23372;52.050;4.810;2023-02-11T09:00:51;6.90;99.90
37528;DHT22;23372;52.050;4.810;2023-02-11T09:03:17;6.90;99.90
37528;DHT22;23372;52.050;4.810;2023-02-11T09:05:47;7.00;99.90
37528;DHT22;23372;52.050;4.810;2023-02-11T09:08:14;7.00;99.90
37528;DHT22;23372;52.050;4.810;2023-02-11T09:10:40;7.10;99.90
37528;DHT22;23372;52.050;4.810;2023-02-11T09:13:06;7.20;99.90
37528;DHT22;23372;52.050;4.810;2023-02-11T09:15:32;7.20;99.90
37528;DHT22;23372;52.050;4.810;2023-02-11T09:17:57;7.30;99.90
37528;DHT22;23372;52.050;4.810;2023-02-11T09:20:24;7.40;99.90
37528;DHT22;23372;52.050;4.810;2023-02-11T09:22:51;7.50;99.90
37528;DHT22;23372;52.050;4.810;2023-02-11T09:25:16;7.60;99.90
37528;DHT22;23372;52.050;4.810;2023-02-11T09:27:42;7.70;99.90
37528;DHT22;23372;52.050;4.810;2023-02-11T09:30:08;7.70;99.90
37528;DHT22;23372;52.050;4.810;2023-02-11T09:32:34;7.80;99.90
37528;DHT22;23372;52.050;4.810;2023-02-11T09:34:59;7.90;99.90
37528;DHT22;23372;52.050;4.810;2023-02-11T09:37:25;8.00;99.90
37528;DHT22;23372;52.050;4.810;2023-02-11T09:39:51;8.00;99.90
37528;DHT22;23372;52.050;4.810;2023-02-11T09:44:48;8.00;99.90
37528;DHT22;23372;52.050;4.810;2023-02-11T09:47:27;8.00;99.90
37528;DHT22;23372;52.050;4.810;2023-02-11T09:50:21;8.10;99.90
37528;DHT22;23372;52.050;4.810;2023-02-11T09:55:27;8.10;99.90
37528;DHT22;23372;52.050;4.810;2023-02-11T09:57:54;8.20;99.90
37528;DHT22;23372;52.050;4.810;2023-02-11T10:00:36;8.20;99.90
37528;DHT22;23372;52.050;4.810;2023-02-11T10:11:25;8.40;99.90
37528;DHT22;23372;52.050;4.810;2023-02-11T10:14:00;8.50;99.90
37528;DHT22;23372;52.050;4.810;2023-02-11T10:19:45;8.60;99.90
37528;DHT22;23372;52.050;4.810;2023-02-11T10:22:21;8.60;99.90
37528;DHT22;23372;52.050;4.810;2023-02-11T10:24:53;8.70;99.90
37528;DHT22;23372;52.050;4.810;2023-02-11T10:27:21;8.80;99.90
37528;DHT22;23372;52.050;4.810;2023-02-11T10:29:52;8.80;99.90
37528;DHT22;23372;52.050;4.810;2023-02-11T10:32:46;8.80;99.90
37528;DHT22;23372;52.050;4.810;2023-02-11T10:35:17;8.90;99.90
37528;DHT22;23372;52.050;4.810;2023-02-11T10:37:43;9.00;99.90
37528;DHT22;23372;52.050;4.810;2023-02-11T10:40:17;9.10;99.90
37528;DHT22;23372;52.050;4.810;2023-02-11T10:42:48;9.20;99.90
37528;DHT22;23372;52.050;4.810;2023-02-11T10:45:32;9.30;99.90
37528;DHT22;23372;52.050;4.810;2023-02-11T10:48:00;9.40;99.90
37528;DHT22;23372;52.050;4.810;2023-02-11T10:50:30;9.50;99.90
37528;DHT22;23372;52.050;4.810;2023-02-11T10:53:18;9.60;99.90
37528;DHT22;23372;52.050;4.810;2023-02-11T10:55:55;9.60;99.90
37528;DHT22;23372;52.050;4.810;2023-02-11T10:58:25;9.60;99.90
37528;DHT22;23372;52.050;4.810;2023-02-11T11:00:54;9.60;99.90
37528;DHT22;23372;52.050;4.810;2023-02-11T11:03:37;9.60;99.90
37528;DHT22;23372;52.050;4.810;2023-02-11T11:06:07;9.50;99.90
37528;DHT22;23372;52.050;4.810;2023-02-11T11:08:43;9.50;99.90
37528;DHT22;23372;52.050;4.810;2023-02-11T11:11:20;9.50;99.90
37528;DHT22;23372;52.050;4.810;2023-02-11T11:16:29;9.60;99.90
37528;DHT22;23372;52.050;4.810;2023-02-11T11:24:27;9.70;99.90
37528;DHT22;23372;52.050;4.810;2023-02-11T11:26:58;9.80;99.90
37528;DHT22;23372;52.050;4.810;2023-02-11T11:29:41;9.70;99.90
37528;DHT22;23372;52.050;4.810;2023-02-11T11:32:14;9.70;99.90
37528;DHT22;23372;52.050;4.810;2023-02-11T11:34:42;9.50;99.90
37528;DHT22;23372;52.050;4.810;2023-02-11T11:37:22;9.50;99.90
37528;DHT22;23372;52.050;4.810;2023-02-11T11:42:38;9.60;99.90
37528;DHT22;23372;52.050;4.810;2023-02-11T11:48:17;9.50;99.90
37528;DHT22;23372;52.050;4.810;2023-02-11T11:53:39;9.70;99.90
37528;DHT22;23372;52.050;4.810;2023-02-11T11:56:17;9.80;99.90
37528;DHT22;23372;52.050;4.810;2023-02-11T11:58:44;10.00;99.90
37528;DHT22;23372;52.050;4.810;2023-02-11T12:01:26;10.00;99.90
37528;DHT22;23372;52.050;4.810;2023-02-11T12:24:12;10.10;99.90
37528;DHT22;23372;52.050;4.810;2023-02-11T12:29:54;10.00;99.90
37528;DHT22;23372;52.050;4.810;2023-02-11T12:32:41;10.00;99.90
37528;DHT22;23372;52.050;4.810;2023-02-11T12:35:44;10.00;99.90
37528;DHT22;23372;52.050;4.810;2023-02-11T12:38:19;10.00;99.90
37528;DHT22;23372;52.050;4.810;2023-02-11T12:41:03;10.10;99.90
37528;DHT22;23372;52.050;4.810;2023-02-11T12:43:39;10.10;99.90
37528;DHT22;23372;52.050;4.810;2023-02-11T12:57:12;10.20;99.90
37528;DHT22;23372;52.050;4.810;2023-02-11T13:08:15;10.30;99.90
37528;DHT22;23372;52.050;4.810;2023-02-11T13:10:49;10.30;99.90
37528;DHT22;23372;52.050;4.810;2023-02-11T13:13:32;10.30;99.90
37528;DHT22;23372;52.050;4.810;2023-02-11T13:16:02;10.30;99.90
37528;DHT22;23372;52.050;4.810;2023-02-11T13:19:13;10.40;99.90
37528;DHT22;23372;52.050;4.810;2023-02-11T13:28:11;10.40;99.90
37528;DHT22;23372;52.050;4.810;2023-02-11T13:30:36;10.40;99.90
37528;DHT22;23372;52.050;4.810;2023-02-11T13:33:16;10.20;99.90
37528;DHT22;23372;52.050;4.810;2023-02-11T13:35:48;10.10;99.90
37528;DHT22;23372;52.050;4.810;2023-02-11T13:38:18;10.20;99.90
37528;DHT22;23372;52.050;4.810;2023-02-11T13:43:41;10.20;99.90
37528;DHT22;23372;52.050;4.810;2023-02-11T13:46:09;10.30;99.90
37528;DHT22;23372;52.050;4.810;2023-02-11T13:48:38;10.20;99.90
37528;DHT22;23372;52.050;4.810;2023-02-11T13:51:13;10.30;99.90
37528;DHT22;23372;52.050;4.810;2023-02-11T13:53:50;10.30;99.90
37528;DHT22;23372;52.050;4.810;2023-02-11T13:59:01;10.30;99.90
37528;DHT22;23372;52.050;4.810;2023-02-11T14:04:30;10.30;99.90
37528;DHT22;23372;52.050;4.810;2023-02-11T14:07:27;10.20;99.90
37528;DHT22;23372;52.050;4.810;2023-02-11T14:16:18;10.20;99.90
37528;DHT22;23372;52.050;4.810;2023-02-11T14:32:32;9.90;99.90
37528;DHT22;23372;52.050;4.810;2023-02-11T14:35:15;10.00;99.90
37528;DHT22;23372;52.050;4.810;2023-02-11T14:37:51;10.00;99.90
37528;DHT22;23372;52.050;4.810;2023-02-11T14:42:50;9.80;99.90
37528;DHT22;23372;52.050;4.810;2023-02-11T14:45:20;9.80;99.90
37528;DHT22;23372;52.050;4.810;2023-02-11T14:47:50;9.80;99.90
37528;DHT22;23372;52.050;4.810;2023-02-11T14:51:12;9.80;99.90
37528;DHT22;23372;52.050;4.810;2023-02-11T14:53:14;9.80;99.90
37528;DHT22;23372;52.050;4.810;2023-02-11T14:55:42;9.80;99.90
37528;DHT22;23372;52.050;4.810;2023-02-11T14:58:22;9.90;99.90
37528;DHT22;23372;52.050;4.810;2023-02-11T15:00:50;9.80;99.90
37528;DHT22;23372;52.050;4.810;2023-02-11T15:03:41;9.80;99.90
37528;DHT22;23372;52.050;4.810;2023-02-11T15:06:22;9.80;99.90
37528;DHT22;23372;52.050;4.810;2023-02-11T15:11:17;9.70;99.90
37528;DHT22;23372;52.050;4.810;2023-02-11T15:13:44;9.70;99.90
37528;DHT22;23372;52.050;4.810;2023-02-11T15:16:16;9.70;99.90
37528;DHT22;23372;52.050;4.810;2023-02-11T15:18:47;9.70;99.90
37528;DHT22;23372;52.050;4.810;2023-02-11T15:21:20;9.70;99.90
37528;DHT22;23372;52.050;4.810;2023-02-11T15:24:04;9.70;99.90
37528;DHT22;23372;52.050;4.810;2023-02-11T15:26:31;9.60;99.90
37528;DHT22;23372;52.050;4.810;2023-02-11T15:28:57;9.60;99.90
37528;DHT22;23372;52.050;4.810;2023-02-11T15:31:25;9.50;99.90
37528;DHT22;23372;52.050;4.810;2023-02-11T15:33:52;9.50;99.90
37528;DHT22;23372;52.050;4.810;2023-02-11T15:36:21;9.50;99.90
37528;DHT22;23372;52.050;4.810;2023-02-11T15:39:14;9.40;99.90
37528;DHT22;23372;52.050;4.810;2023-02-11T15:41:40;9.40;99.90
37528;DHT22;23372;52.050;4.810;2023-02-11T15:44:28;9.40;99.90
37528;DHT22;23372;52.050;4.810;2023-02-11T15:46:54;9.30;99.90
37528;DHT22;23372;52.050;4.810;2023-02-11T15:49:20;9.30;99.90
37528;DHT22;23372;52.050;4.810;2023-02-11T15:51:48;9.20;99.90
37528;DHT22;23372;52.050;4.810;2023-02-11T15:54:21;9.30;99.90
37528;DHT22;23372;52.050;4.810;2023-02-11T15:56:50;9.20;99.90
37528;DHT22;23372;52.050;4.810;2023-02-11T15:59:25;9.20;99.90
37528;DHT22;23372;52.050;4.810;2023-02-11T16:01:52;9.20;99.90
37528;DHT22;23372;52.050;4.810;2023-02-11T16:04:26;9.20;99.90
37528;DHT22;23372;52.050;4.810;2023-02-11T16:06:53;9.10;99.90
37528;DHT22;23372;52.050;4.810;2023-02-11T16:09:32;9.20;99.90
37528;DHT22;23372;52.050;4.810;2023-02-11T16:12:16;9.10;99.90
37528;DHT22;23372;52.050;4.810;2023-02-11T16:14:46;9.10;99.90
37528;DHT22;23372;52.050;4.810;2023-02-11T16:17:22;9.10;99.90
37528;DHT22;23372;52.050;4.810;2023-02-11T16:19:49;9.00;99.90
37528;DHT22;23372;52.050;4.810;2023-02-11T16:22:25;9.00;99.90
37528;DHT22;23372;52.050;4.810;2023-02-11T16:24:55;8.90;99.90
37528;DHT22;23372;52.050;4.810;2023-02-11T16:27:27;8.90;99.90
37528;DHT22;23372;52.050;4.810;2023-02-11T16:29:55;8.80;99.90
37528;DHT22;23372;52.050;4.810;2023-02-11T16:32:24;8.80;99.90
37528;DHT22;23372;52.050;4.810;2023-02-11T16:34:51;8.80;99.90
37528;DHT22;23372;52.050;4.810;2023-02-11T16:37:16;8.70;99.90
37528;DHT22;23372;52.050;4.810;2023-02-11T16:39:42;8.80;99.90
37528;DHT22;23372;52.050;4.810;2023-02-11T16:42:12;8.70;99.90
37528;DHT22;23372;52.050;4.810;2023-02-11T16:44:37;8.70;99.90
37528;DHT22;23372;52.050;4.810;2023-02-11T16:47:05;8.70;99.90
37528;DHT22;23372;52.050;4.810;2023-02-11T16:49:35;8.60;99.90
37528;DHT22;23372;52.050;4.810;2023-02-11T16:52:05;8.60;99.90
37528;DHT22;23372;52.050;4.810;2023-02-11T16:54:32;8.60;99.90
37528;DHT22;23372;52.050;4.810;2023-02-11T16:56:57;8.60;99.90
37528;DHT22;23372;52.050;4.810;2023-02-11T16:59:23;8.60;99.90
37528;DHT22;23372;52.050;4.810;2023-02-11T17:01:51;8.60;99.90
37528;DHT22;23372;52.050;4.810;2023-02-11T17:04:29;8.50;99.90
37528;DHT22;23372;52.050;4.810;2023-02-11T17:06:55;8.50;99.90
37528;DHT22;23372;52.050;4.810;2023-02-11T17:09:26;8.50;99.90
37528;DHT22;23372;52.050;4.810;2023-02-11T17:11:52;8.50;99.90
37528;DHT22;23372;52.050;4.810;2023-02-11T17:14:18;8.50;99.90
37528;DHT22;23372;52.050;4.810;2023-02-11T17:16:45;8.50;99.90
37528;DHT22;23372;52.050;4.810;2023-02-11T17:19:15;8.50;99.90
37528;DHT22;23372;52.050;4.810;2023-02-11T17:21:42;8.50;99.90
37528;DHT22;23372;52.050;4.810;2023-02-11T17:24:08;8.40;99.90
37528;DHT22;23372;52.050;4.810;2023-02-11T17:26:35;8.50;99.90
37528;DHT22;23372;52.050;4.810;2023-02-11T17:29:04;8.40;99.90
37528;DHT22;23372;52.050;4.810;2023-02-11T17:31:30;8.40;99.90
37528;DHT22;23372;52.050;4.810;2023-02-11T17:33:56;8.40;99.90
37528;DHT22;23372;52.050;4.810;2023-02-11T17:36:21;8.30;99.90
37528;DHT22;23372;52.050;4.810;2023-02-11T17:38:47;8.30;99.90
37528;DHT22;23372;52.050;4.810;2023-02-11T17:41:12;8.30;99.90
37528;DHT22;23372;52.050;4.810;2023-02-11T17:43:38;8.40;99.90
37528;DHT22;23372;52.050;4.810;2023-02-11T17:46:07;8.30;99.90
37528;DHT22;23372;52.050;4.810;2023-02-11T17:48:36;8.30;99.90
37528;DHT22;23372;52.050;4.810;2023-02-11T17:51:01;8.30;99.90
37528;DHT22;23372;52.050;4.810;2023-02-11T17:53:27;8.30;99.90
37528;DHT22;23372;52.050;4.810;2023-02-11T17:55:54;8.30;99.90
37528;DHT22;23372;52.050;4.810;2023-02-11T17:58:20;8.30;99.90
37528;DHT22;23372;52.050;4.810;2023-02-11T18:00:46;8.30;99.90
37528;DHT22;23372;52.050;4.810;2023-02-11T18:03:12;8.20;99.90
37528;DHT22;23372;52.050;4.810;2023-02-11T18:05:37;8.20;99.90
37528;DHT22;23372;52.050;4.810;2023-02-11T18:08:05;8.30;99.90
37528;DHT22;23372;52.050;4.810;2023-02-11T18:10:32;8.30;99.90
37528;DHT22;23372;52.050;4.810;2023-02-11T18:12:58;8.20;99.90
37528;DHT22;23372;52.050;4.810;2023-02-11T18:15:24;8.20;99.90
37528;DHT22;23372;52.050;4.810;2023-02-11T18:17:50;8.20;99.90
37528;DHT22;23372;52.050;4.810;2023-02-11T18:20:15;8.20;99.90
37528;DHT22;23372;52.050;4.810;2023-02-11T18:22:41;8.20;99.90